Time;durP1;ratioP1;P1;durP2;ratioP2;P2;SDS_P1;SDS_P2;PMS_P1;PMS_P2;Temp;Humidity;BMP_temperature;BMP_pressure;BME280_temperature;BME280_humidity;BME280_pressure;Samples;Min_cycle;Max_cycle;Signal;HPM_P1;HPM_P2
2023/01/06 00:00:41;;;;;;;19.63;14.90;;;;;;;11.14;100.00;101775.53;2087126;28;20055;-74
2023/01/06 00:02:03;;;;;;;18.77;14.48;;;;;;;11.12;100.00;101774.59;2095099;28;20078;-75
2023/01/06 00:03:26;;;;;;;20.83;14.98;;;;;;;11.12;100.00;101776.31;2094878;28;20431;-74
2023/01/06 00:04:48;;;;;;;19.40;15.45;;;;;;;11.10;100.00;101773.63;2096182;28;20055;-74
2023/01/06 00:06:12;;;;;;;18.73;13.80;;;;;;;11.07;100.00;101768.28;2094603;28;20520;-74
2023/01/06 00:07:34;;;;;;;17.77;12.63;;;;;;;11.07;100.00;101775.28;2086622;28;20513;-74
2023/01/06 00:08:58;;;;;;;19.20;14.82;;;;;;;11.08;100.00;101772.72;2095193;28;20052;-74
2023/01/06 00:10:21;;;;;;;18.65;13.93;;;;;;;11.05;100.00;101772.59;2094789;28;20073;-74
2023/01/06 00:11:43;;;;;;;21.63;12.73;;;;;;;11.04;100.00;101778.72;2086536;28;20060;-74
2023/01/06 00:13:06;;;;;;;17.75;12.88;;;;;;;11.03;100.00;101779.56;2092637;28;20087;-74
2023/01/06 00:14:30;;;;;;;18.10;13.48;;;;;;;11.05;100.00;101774.34;2094964;28;20109;-74
2023/01/06 00:15:54;;;;;;;18.05;13.23;;;;;;;11.04;100.00;101772.53;2094788;28;20103;-73
2023/01/06 00:17:16;;;;;;;17.70;12.75;;;;;;;11.04;100.00;101777.84;2088117;28;20486;-73
2023/01/06 00:18:39;;;;;;;18.35;13.00;;;;;;;11.02;100.00;101769.00;2085381;28;20048;-73
2023/01/06 00:20:02;;;;;;;18.50;12.98;;;;;;;11.02;100.00;101771.63;2092009;28;20060;-73
2023/01/06 00:21:25;;;;;;;16.95;13.00;;;;;;;10.99;100.00;101777.72;2094823;28;20128;-73
2023/01/06 00:22:47;;;;;;;16.30;13.10;;;;;;;10.98;100.00;101777.66;2102984;28;20748;-74
2023/01/06 00:24:10;;;;;;;17.38;12.38;;;;;;;10.97;100.00;101776.75;2097776;28;20055;-73
2023/01/06 00:25:32;;;;;;;19.08;13.70;;;;;;;10.95;100.00;101774.94;2086923;28;20170;-74
2023/01/06 00:26:55;;;;;;;19.63;12.45;;;;;;;10.91;100.00;101773.03;2099774;28;20040;-73
2023/01/06 00:28:17;;;;;;;20.25;14.05;;;;;;;10.88;100.00;101773.84;2088853;28;20049;-73
2023/01/06 00:29:41;;;;;;;19.08;13.25;;;;;;;10.89;100.00;101769.47;2092387;28;20052;-74
2023/01/06 00:31:09;;;;;;;18.77;13.13;;;;;;;10.89;100.00;101773.00;2089104;28;20550;-73
2023/01/06 00:32:30;;;;;;;18.00;13.40;;;;;;;10.88;100.00;101776.50;2085435;28;20041;-73
2023/01/06 00:33:55;;;;;;;18.05;13.70;;;;;;;10.89;100.00;101772.13;2092352;28;20040;-73
2023/01/06 00:35:18;;;;;;;20.90;14.25;;;;;;;10.89;100.00;101772.13;2086527;28;20037;-73
2023/01/06 00:36:41;;;;;;;19.00;14.20;;;;;;;10.89;100.00;101773.00;2092483;28;20045;-73
2023/01/06 00:38:04;;;;;;;20.65;14.57;;;;;;;10.90;100.00;101779.16;2103619;28;20044;-74
2023/01/06 00:39:27;;;;;;;21.25;13.73;;;;;;;10.90;100.00;101784.44;2088773;28;20049;-74
2023/01/06 00:40:48;;;;;;;21.08;14.15;;;;;;;10.88;100.00;101780.88;2083046;28;20938;-73
2023/01/06 00:42:11;;;;;;;20.95;15.60;;;;;;;10.84;100.00;101779.88;2091920;28;20064;-74
2023/01/06 00:43:33;;;;;;;20.42;14.45;;;;;;;10.82;100.00;101776.31;2094450;28;20040;-74
2023/01/06 00:44:58;;;;;;;19.05;13.48;;;;;;;10.79;100.00;101773.56;2093898;28;20056;-74
2023/01/06 00:46:19;;;;;;;18.48;13.65;;;;;;;10.76;100.00;101770.84;2077333;28;20056;-74
2023/01/06 00:47:41;;;;;;;22.65;14.05;;;;;;;10.74;100.00;101768.16;2089792;28;20059;-73
2023/01/06 00:49:04;;;;;;;19.90;13.75;;;;;;;10.74;100.00;101768.16;2085293;28;20102;-73
2023/01/06 00:50:28;;;;;;;23.35;15.15;;;;;;;10.75;100.00;101771.69;2078410;28;20080;-74
2023/01/06 00:51:49;;;;;;;22.00;14.65;;;;;;;10.75;100.00;101767.31;2086712;28;20151;-73
2023/01/06 00:53:12;;;;;;;20.08;13.38;;;;;;;10.76;100.00;101771.72;2092585;28;20148;-73
2023/01/06 00:54:35;;;;;;;21.48;14.75;;;;;;;10.80;100.00;101772.72;2086073;28;20041;-73
2023/01/06 00:56:00;;;;;;;18.27;13.23;;;;;;;10.81;100.00;101768.34;2092489;28;20102;-73
2023/01/06 00:57:21;;;;;;;18.45;14.15;;;;;;;10.82;100.00;101767.50;2094657;28;20182;-73
2023/01/06 00:58:44;;;;;;;21.38;14.98;;;;;;;10.85;100.00;101771.09;2088301;28;20076;-74
2023/01/06 01:00:13;;;;;;;20.95;13.90;;;;;;;10.87;100.00;101766.78;2086808;28;20091;-73
2023/01/06 01:01:35;;;;;;;19.20;13.75;;;;;;;10.84;100.00;101769.31;2093074;28;20063;-74
2023/01/06 01:02:58;;;;;;;18.23;13.38;;;;;;;10.80;100.00;101767.44;2085713;28;20037;-73
2023/01/06 01:04:22;;;;;;;19.55;12.98;;;;;;;10.75;100.00;101764.66;2093482;28;20448;-73
2023/01/06 01:05:44;;;;;;;18.90;13.80;;;;;;;10.74;100.00;101767.25;2094876;28;20044;-74
2023/01/06 01:07:07;;;;;;;17.75;12.88;;;;;;;10.76;100.00;101765.56;2098639;28;20045;-73
2023/01/06 01:08:29;;;;;;;18.35;13.15;;;;;;;10.79;100.00;101769.19;2089058;28;20819;-73
2023/01/06 01:09:52;;;;;;;19.63;13.45;;;;;;;10.82;100.00;101768.38;2085697;28;20663;-74
2023/01/06 01:12:08;;;;;;;18.50;14.13;;;;;;;10.83;100.00;101770.16;2084128;28;20068;-75
2023/01/06 01:12:57;;;;;;;19.45;13.55;;;;;;;10.81;100.00;101763.94;2097473;28;20136;-73
2023/01/06 01:14:20;;;;;;;17.20;12.88;;;;;;;10.79;100.00;101770.91;2088379;28;20041;-74
2023/01/06 01:15:45;;;;;;;17.58;13.05;;;;;;;10.76;100.00;101778.75;2094853;28;20544;-74
2023/01/06 01:17:08;;;;;;;19.15;12.90;;;;;;;10.71;100.00;101773.31;2093959;28;20550;-74
2023/01/06 01:18:31;;;;;;;20.45;13.40;;;;;;;10.68;100.00;101767.06;2094300;28;20119;-74
2023/01/06 01:19:55;;;;;;;19.83;14.15;;;;;;;10.65;100.00;101767.84;2088485;28;20057;-73
2023/01/06 01:21:17;;;;;;;17.00;12.27;;;;;;;10.64;100.00;101767.78;2100945;28;20082;-74
2023/01/06 01:22:40;;;;;;;17.80;12.38;;;;;;;10.63;100.00;101766.03;2079180;28;20088;-74
2023/01/06 01:24:01;;;;;;;21.05;14.60;;;;;;;10.63;100.00;101766.88;2091429;28;20045;-74
2023/01/06 01:25:23;;;;;;;19.55;14.63;;;;;;;10.64;100.00;101776.63;2089229;28;20078;-74
2023/01/06 01:26:46;;;;;;;20.25;15.25;;;;;;;10.65;100.00;101773.13;2092194;28;20158;-74
2023/01/06 01:28:09;;;;;;;19.75;14.10;;;;;;;10.66;100.00;101774.94;2093964;28;20481;-74
2023/01/06 01:29:31;;;;;;;23.58;14.32;;;;;;;10.66;100.00;101774.03;2084836;28;20056;-73
2023/01/06 01:31:01;;;;;;;19.05;13.95;;;;;;;10.68;100.00;101780.25;2086149;28;20041;-73
2023/01/06 01:32:24;;;;;;;20.42;14.43;;;;;;;10.67;100.00;101778.47;2093655;28;20052;-73
2023/01/06 01:33:45;;;;;;;22.77;15.38;;;;;;;10.65;100.00;101778.41;2085652;28;20044;-74
2023/01/06 01:35:09;;;;;;;24.88;16.08;;;;;;;10.65;100.00;101773.13;2099061;28;20069;-74
2023/01/06 01:36:35;;;;;;;20.20;12.80;;;;;;;10.64;100.00;101771.34;2089043;28;20050;-74
2023/01/06 01:37:58;;;;;;;17.52;13.07;;;;;;;10.63;100.00;101774.81;2075616;28;20508;-74
2023/01/06 01:39:21;;;;;;;20.52;13.38;;;;;;;10.65;100.00;101770.50;2075294;28;20461;-74
2023/01/06 01:40:48;;;;;;;16.70;12.88;;;;;;;10.68;100.00;101774.97;2091424;28;20590;-73
2023/01/06 01:42:21;;;;;;;17.35;12.90;;;;;;;10.72;100.00;101771.56;2083566;28;20315;-73
2023/01/06 01:43:43;;;;;;;17.00;12.15;;;;;;;10.72;100.00;101774.22;2087738;28;20048;-74
2023/01/06 01:45:07;;;;;;;15.88;12.10;;;;;;;10.75;100.00;101775.22;2090823;28;20806;-74
2023/01/06 01:46:33;;;;;;;14.90;11.18;;;;;;;10.78;100.00;101772.66;2086561;28;20064;-73
2023/01/06 01:48:02;;;;;;;16.83;12.30;;;;;;;10.83;100.00;101766.66;2088760;28;20072;-74
2023/01/06 01:49:25;;;;;;;17.40;12.32;;;;;;;10.84;100.00;101764.03;2085482;28;20064;-73
2023/01/06 01:50:54;;;;;;;18.45;12.10;;;;;;;10.85;100.00;101763.19;2097382;28;20487;-74
2023/01/06 01:52:17;;;;;;;17.08;11.82;;;;;;;10.83;100.00;101766.66;2080505;28;20049;-74
2023/01/06 01:53:43;;;;;;;16.73;12.43;;;;;;;10.82;100.00;101759.56;2103205;28;20074;-73
2023/01/06 01:55:08;;;;;;;18.67;12.95;;;;;;;10.78;100.00;101759.44;2096142;28;20048;-74
2023/01/06 01:56:33;;;;;;;17.02;11.13;;;;;;;10.79;100.00;101755.06;2086067;28;20088;-74
2023/01/06 01:58:01;;;;;;;17.85;11.18;;;;;;;10.79;100.00;101752.44;2084365;28;20060;-74
2023/01/06 01:59:27;;;;;;;15.30;10.35;;;;;;;10.79;100.00;101750.69;2084998;28;20071;-74
2023/01/06 02:00:51;;;;;;;14.63;10.48;;;;;;;10.79;100.00;101747.16;2081190;28;20060;-74
2023/01/06 02:02:17;;;;;;;13.70;9.52;;;;;;;10.79;100.00;101741.88;2090896;28;20036;-74
2023/01/06 02:03:42;;;;;;;13.55;9.18;;;;;;;10.80;100.00;101754.22;2086094;28;20410;-74
2023/01/06 02:05:07;;;;;;;14.52;9.85;;;;;;;10.79;100.00;101741.88;2083959;28;20045;-74
2023/01/06 02:06:31;;;;;;;13.55;10.00;;;;;;;10.79;100.00;101747.16;2082349;28;20045;-74
2023/01/06 02:07:56;;;;;;;16.60;10.52;;;;;;;10.78;100.00;101748.00;2091888;28;20041;-74
2023/01/06 02:09:22;;;;;;;13.20;9.82;;;;;;;10.77;100.00;101744.44;2094732;28;20052;-74
2023/01/06 02:10:45;;;;;;;16.77;11.23;;;;;;;10.77;100.00;101746.19;2086160;28;20171;-74
2023/01/06 02:12:07;;;;;;;13.52;9.80;;;;;;;10.75;100.00;101748.81;2091181;28;20055;-74
2023/01/06 02:13:31;;;;;;;15.05;10.75;;;;;;;10.74;100.00;101746.13;2094409;28;20107;-74
2023/01/06 02:14:54;;;;;;;15.02;10.15;;;;;;;10.72;100.00;101748.72;2087501;28;20075;-74
2023/01/06 02:16:23;;;;;;;14.60;10.63;;;;;;;10.72;100.00;101742.53;2083000;28;20044;-74
2023/01/06 02:18:12;;;;;;;14.63;10.50;;;;;;;10.71;100.00;101743.38;2093575;28;20117;-74
2023/01/06 02:20:16;;;;;;;13.98;9.52;;;;;;;10.73;100.00;101746.97;2097072;28;20052;-74
2023/01/06 02:22:05;;;;;;;14.27;9.88;;;;;;;10.76;100.00;101739.16;2090915;28;20139;-74
2023/01/06 02:24:12;;;;;;;13.15;8.77;;;;;;;10.77;100.00;101736.53;2088665;28;20041;-74
2023/01/06 02:26:24;;;;;;;13.48;8.85;;;;;;;10.75;100.00;101732.97;2088777;28;20056;-73
2023/01/06 02:28:33;;;;;;;13.75;8.80;;;;;;;10.71;100.00;101741.63;2055395;28;20117;-73
2023/01/06 02:30:37;;;;;;;11.50;8.50;;;;;;;10.66;100.00;101731.78;2088639;28;20528;-73
2023/01/06 02:32:08;;;;;;;12.45;9.43;;;;;;;10.64;100.00;101728.19;2094819;28;20592;-73
2023/01/06 02:33:33;;;;;;;14.75;9.85;;;;;;;10.61;100.00;101729.00;2086808;28;20057;-73
2023/01/06 02:35:12;;;;;;;14.48;9.85;;;;;;;10.60;100.00;101734.22;2091194;28;20546;-73
2023/01/06 02:36:43;;;;;;;14.20;9.77;;;;;;;10.57;100.00;101721.81;2087557;28;20052;-74
2023/01/06 02:38:18;;;;;;;16.92;13.38;;;;;;;10.55;100.00;101723.53;2094172;28;20075;-73
2023/01/06 02:39:47;;;;;;;16.73;12.82;;;;;;;10.51;100.00;101721.63;2086997;28;20496;-73
2023/01/06 02:41:18;;;;;;;15.90;11.45;;;;;;;10.50;100.00;101717.19;2090589;28;20048;-73
2023/01/06 02:42:53;;;;;;;24.65;18.63;;;;;;;10.50;100.00;101721.59;2086935;28;20183;-74
2023/01/06 02:44:22;;;;;;;44.53;40.53;;;;;;;10.49;100.00;101719.81;2094516;28;20052;-73
2023/01/06 02:46:01;;;;;;;33.03;29.75;;;;;;;10.44;100.00;101718.75;2080034;28;20080;-73
2023/01/06 02:47:32;;;;;;;20.20;18.08;;;;;;;10.43;100.00;101714.34;2090002;28;20044;-73
2023/01/06 02:49:04;;;;;;;14.68;10.68;;;;;;;10.46;100.00;101719.69;2078829;28;20547;-74
2023/01/06 02:50:38;;;;;;;14.60;9.73;;;;;;;10.49;100.00;101711.88;2091333;28;20055;-73
2023/01/06 02:52:07;;;;;;;16.48;9.75;;;;;;;10.52;100.00;101711.97;2087196;28;20049;-73
2023/01/06 02:53:43;;;;;;;13.52;10.10;;;;;;;10.54;100.00;101715.56;2102871;28;20515;-73
2023/01/06 02:55:11;;;;;;;13.00;8.88;;;;;;;10.55;100.00;101707.69;2087542;28;20045;-73
2023/01/06 02:56:39;;;;;;;15.07;9.45;;;;;;;10.55;100.00;101712.97;2091766;28;20041;-74
2023/01/06 02:58:10;;;;;;;12.40;9.00;;;;;;;10.56;100.00;101709.50;2078144;28;20053;-74
2023/01/06 02:59:39;;;;;;;12.13;8.80;;;;;;;10.57;100.00;101713.00;2085687;28;20136;-74
2023/01/06 03:01:08;;;;;;;13.98;8.27;;;;;;;10.58;100.00;101709.50;2088969;28;21876;-74
2023/01/06 03:02:35;;;;;;;12.98;8.32;;;;;;;10.60;100.00;101706.09;2089919;28;20087;-74
2023/01/06 03:04:02;;;;;;;22.00;14.40;;;;;;;10.60;100.00;101706.09;2098564;28;20051;-73
2023/01/06 03:05:26;;;;;;;18.60;12.23;;;;;;;10.60;100.00;101694.63;2094566;28;20040;-74
2023/01/06 03:06:50;;;;;;;23.23;16.80;;;;;;;10.57;100.00;101698.06;2085934;28;20045;-74
2023/01/06 03:08:17;;;;;;;20.58;14.27;;;;;;;10.55;100.00;101698.88;2085907;28;20040;-74
2023/01/06 03:09:40;;;;;;;16.10;12.55;;;;;;;10.52;100.00;101693.50;2089095;28;21725;-74
2023/01/06 03:11:04;;;;;;;19.83;14.48;;;;;;;10.48;100.00;101692.50;2082632;28;20041;-73
2023/01/06 03:12:32;;;;;;;26.70;14.85;;;;;;;10.49;100.00;101693.41;2086290;28;20052;-74
2023/01/06 03:14:03;;;;;;;15.63;9.95;;;;;;;10.51;100.00;101692.59;2084241;28;20033;-74
2023/01/06 03:15:26;;;;;;;12.00;8.15;;;;;;;10.54;100.00;101694.44;2092901;28;20044;-73
2023/01/06 03:16:48;;;;;;;9.65;7.47;;;;;;;10.57;100.00;101697.16;2085253;28;20455;-74
2023/01/06 03:18:12;;;;;;;15.32;8.23;;;;;;;10.55;100.00;101704.16;2093993;28;20385;-74
2023/01/06 03:19:35;;;;;;;10.75;7.43;;;;;;;10.54;100.00;101697.09;2093366;28;20098;-74
2023/01/06 03:21:04;;;;;;;12.98;8.45;;;;;;;10.56;100.00;101705.94;2092386;28;20352;-74
2023/01/06 03:22:27;;;;;;;12.88;7.82;;;;;;;10.56;100.00;101698.03;2094651;28;20056;-74
2023/01/06 03:23:49;;;;;;;13.88;8.70;;;;;;;10.56;100.00;101700.69;2099272;28;20484;-74
2023/01/06 03:25:12;;;;;;;12.00;7.90;;;;;;;10.57;100.00;101702.44;2096074;28;20052;-74
2023/01/06 03:26:36;;;;;;;10.57;6.70;;;;;;;10.59;100.00;101695.47;2087644;28;20049;-74
2023/01/06 03:27:59;;;;;;;12.35;7.60;;;;;;;10.61;100.00;101693.78;2093929;28;20036;-74
2023/01/06 03:29:22;;;;;;;13.60;7.68;;;;;;;10.62;100.00;101701.75;2084634;28;20057;-74
2023/01/06 03:30:52;;;;;;;11.98;7.85;;;;;;;10.63;100.00;101694.72;2075167;28;20052;-74
2023/01/06 03:32:22;;;;;;;10.55;7.30;;;;;;;10.63;100.00;101707.94;2082775;28;20037;-74
2023/01/06 03:33:56;;;;;;;11.25;6.90;;;;;;;10.62;100.00;101698.22;2085844;28;20835;-73
2023/01/06 03:35:45;;;;;;;9.82;6.80;;;;;;;10.60;100.00;101703.44;2102221;28;20048;-74
2023/01/06 03:37:14;;;;;;;11.98;8.48;;;;;;;10.60;100.00;101706.09;2103884;28;20043;-74
2023/01/06 03:38:46;;;;;;;10.65;7.43;;;;;;;10.61;100.00;101704.34;2086603;28;20429;-73
2023/01/06 03:40:13;;;;;;;14.10;8.20;;;;;;;10.58;100.00;101706.88;2078546;28;20041;-73
2023/01/06 03:43:28;;;;;;;12.98;7.68;;;;;;;10.56;100.00;101709.50;2095109;28;20164;-73
2023/01/06 03:44:57;;;;;;;10.27;7.85;;;;;;;10.54;100.00;101707.66;2093968;28;20110;-74
2023/01/06 03:46:25;;;;;;;11.40;7.45;;;;;;;10.52;100.00;101710.22;2094033;28;20131;-74
2023/01/06 03:47:52;;;;;;;12.68;7.75;;;;;;;10.49;100.00;101709.25;2086390;28;20057;-73
2023/01/06 03:49:21;;;;;;;11.55;7.25;;;;;;;10.45;100.00;101717.91;2091968;28;20051;-74
2023/01/06 03:50:51;;;;;;;11.73;9.00;;;;;;;10.41;100.00;101713.38;2084809;28;20052;-73
2023/01/06 03:52:21;;;;;;;16.42;12.48;;;;;;;10.37;100.00;101721.19;2084419;28;20049;-73
2023/01/06 03:53:50;;;;;;;14.57;10.20;;;;;;;10.37;100.00;101722.97;2085115;28;20083;-74
2023/01/06 03:55:16;;;;;;;16.20;12.18;;;;;;;10.37;100.00;101715.91;2084289;28;20139;-74
2023/01/06 03:56:43;;;;;;;20.55;17.25;;;;;;;10.37;100.00;101718.56;2091284;28;20044;-74
2023/01/06 03:58:09;;;;;;;18.20;13.63;;;;;;;10.38;100.00;101719.44;2085750;28;20041;-74
2023/01/06 03:59:35;;;;;;;17.98;11.57;;;;;;;10.38;100.00;101717.72;2092015;28;20042;-73
2023/01/06 04:00:59;;;;;;;16.23;9.43;;;;;;;10.40;100.00;101717.78;2085249;28;20088;-73
2023/01/06 04:02:22;;;;;;;15.02;10.55;;;;;;;10.38;100.00;101725.63;2082654;28;20525;-74
2023/01/06 04:03:45;;;;;;;13.73;9.63;;;;;;;10.37;100.00;101728.25;2093069;28;20040;-74
2023/01/06 04:05:12;;;;;;;13.40;9.82;;;;;;;10.37;100.00;101726.47;2092861;28;20459;-74
2023/01/06 04:06:36;;;;;;;11.82;8.35;;;;;;;10.36;100.00;101723.81;2092363;28;20558;-74
2023/01/06 04:08:00;;;;;;;12.43;9.00;;;;;;;10.36;100.00;101726.44;2085421;28;20073;-73
2023/01/06 04:09:23;;;;;;;13.45;7.80;;;;;;;10.38;100.00;101728.28;2091135;28;20053;-74
2023/01/06 04:10:45;;;;;;;11.15;7.85;;;;;;;10.41;100.00;101719.56;2085688;28;20052;-74
2023/01/06 04:13:47;;;;;;;12.07;7.05;;;;;;;10.46;100.00;101728.50;2086951;28;20051;-73
2023/01/06 04:15:12;;;;;;;11.65;7.47;;;;;;;10.48;100.00;101733.84;2099227;28;20035;-74
2023/01/06 04:16:34;;;;;;;9.10;6.78;;;;;;;10.49;100.00;101728.63;2079901;28;20529;-74
2023/01/06 04:17:58;;;;;;;11.90;7.57;;;;;;;10.52;100.00;101733.09;2079740;28;20040;-73
2023/01/06 04:19:21;;;;;;;10.13;7.43;;;;;;;10.53;100.00;101725.22;2091884;28;20048;-74
2023/01/06 04:20:44;;;;;;;10.32;6.97;;;;;;;10.53;100.00;101734.88;2089180;28;20153;-74
2023/01/06 04:22:21;;;;;;;10.98;6.88;;;;;;;10.53;100.00;101732.25;2096873;28;20110;-74
2023/01/06 04:23:44;;;;;;;17.10;7.60;;;;;;;10.54;100.00;101734.94;2085860;28;20045;-74
2023/01/06 04:25:06;;;;;;;11.13;7.90;;;;;;;10.56;100.00;101737.63;2086626;28;20060;-74
2023/01/06 04:26:29;;;;;;;12.52;7.78;;;;;;;10.54;100.00;101732.31;2084246;28;20053;-74
2023/01/06 04:27:52;;;;;;;12.52;7.45;;;;;;;10.52;100.00;101738.38;2086780;28;20127;-74
2023/01/06 04:29:14;;;;;;;11.90;7.50;;;;;;;10.50;100.00;101737.44;2083937;28;20136;-74
2023/01/06 04:30:37;;;;;;;14.68;7.70;;;;;;;10.47;100.00;101737.34;2096049;28;20095;-74
2023/01/06 04:31:58;;;;;;;13.15;7.28;;;;;;;10.44;100.00;101734.59;2086791;28;20047;-74
2023/01/06 04:33:21;;;;;;;10.25;7.03;;;;;;;10.38;100.00;101744.09;2093023;28;20143;-74
2023/01/06 04:34:44;;;;;;;11.50;8.55;;;;;;;10.37;100.00;101739.66;2086134;28;20057;-75
2023/01/06 04:36:10;;;;;;;16.48;11.77;;;;;;;10.39;100.00;101748.53;2084371;28;20512;-74
2023/01/06 04:37:36;;;;;;;16.45;10.80;;;;;;;10.39;100.00;101750.28;2093884;28;20048;-74
2023/01/06 04:38:57;;;;;;;14.20;10.88;;;;;;;10.39;100.00;101756.47;2088548;28;20056;-73
2023/01/06 04:40:19;;;;;;;16.45;11.43;;;;;;;10.38;100.00;101757.31;2098539;28;20044;-74
2023/01/06 04:41:41;;;;;;;17.95;11.90;;;;;;;10.39;100.00;101753.81;2102962;28;20048;-73
2023/01/06 04:43:06;;;;;;;20.33;11.65;;;;;;;10.39;100.00;101759.09;2096986;28;20443;-74
2023/01/06 04:44:28;;;;;;;16.13;13.38;;;;;;;10.39;100.00;101760.84;2095426;28;20041;-74
2023/01/06 04:45:49;;;;;;;22.60;14.25;;;;;;;10.38;100.00;101761.69;2095206;28;20400;-74
2023/01/06 04:47:12;;;;;;;21.02;16.35;;;;;;;10.36;100.00;101761.66;2089108;28;20139;-73
2023/01/06 04:48:34;;;;;;;24.58;20.08;;;;;;;10.38;100.00;101765.22;2094915;28;20059;-73
2023/01/06 04:49:57;;;;;;;19.15;14.00;;;;;;;10.41;100.00;101766.19;2095016;28;20676;-74
2023/01/06 04:51:20;;;;;;;16.83;11.40;;;;;;;10.44;100.00;101767.16;2085328;28;20546;-74
2023/01/06 04:52:42;;;;;;;18.95;11.70;;;;;;;10.44;100.00;101769.78;2094937;28;20045;-74
2023/01/06 04:54:05;;;;;;;17.02;12.40;;;;;;;10.47;100.00;101766.38;2094974;28;20566;-73
2023/01/06 04:55:28;;;;;;;27.27;18.77;;;;;;;10.49;100.00;101770.88;2097709;28;20566;-74
2023/01/06 04:56:50;;;;;;;24.00;14.50;;;;;;;10.54;100.00;101768.38;2098150;28;20043;-73
2023/01/06 04:58:12;;;;;;;18.98;12.20;;;;;;;10.59;100.00;101778.22;2089598;28;20060;-74
2023/01/06 04:59:35;;;;;;;14.55;9.77;;;;;;;10.61;100.00;101771.25;2088400;28;20492;-73
2023/01/06 05:01:00;;;;;;;14.05;10.52;;;;;;;10.67;100.00;101773.19;2095949;28;20107;-74
2023/01/06 05:02:23;;;;;;;17.02;12.45;;;;;;;10.70;100.00;101770.63;2097039;28;20052;-74
2023/01/06 05:03:45;;;;;;;15.85;10.35;;;;;;;10.71;100.00;101765.41;2089084;28;20044;-74
2023/01/06 05:05:07;;;;;;;12.85;8.88;;;;;;;10.74;100.00;101768.16;2092493;28;20040;-74
2023/01/06 05:06:31;;;;;;;12.55;8.68;;;;;;;10.75;100.00;101764.66;2094442;28;20049;-74
2023/01/06 05:07:53;;;;;;;17.77;11.18;;;;;;;10.75;100.00;101769.94;2102426;28;20059;-74
2023/01/06 05:09:15;;;;;;;19.05;11.93;;;;;;;10.72;100.00;101768.94;2089060;28;20041;-74
2023/01/06 05:10:38;;;;;;;11.38;7.47;;;;;;;10.68;100.00;101767.97;2091122;28;20132;-73
2023/01/06 05:12:00;;;;;;;12.00;8.27;;;;;;;10.67;100.00;101763.53;2084999;28;20040;-74
2023/01/06 05:13:21;;;;;;;13.60;8.15;;;;;;;10.67;100.00;101773.19;2092365;28;20122;-74
2023/01/06 05:14:44;;;;;;;12.32;8.63;;;;;;;10.66;100.00;101767.00;2096601;28;20048;-74
2023/01/06 05:16:06;;;;;;;17.35;8.40;;;;;;;10.63;100.00;101764.25;2101639;28;20047;-74
2023/01/06 05:17:29;;;;;;;13.43;8.32;;;;;;;10.63;100.00;101772.16;2088732;28;20049;-74
2023/01/06 05:18:52;;;;;;;13.90;7.55;;;;;;;10.60;100.00;101768.56;2091721;28;20385;-74
2023/01/06 05:20:14;;;;;;;12.93;6.82;;;;;;;10.58;100.00;101765.84;2088521;28;20094;-74
2023/01/06 05:21:37;;;;;;;13.68;7.47;;;;;;;10.59;100.00;101762.38;2099536;28;20071;-74
2023/01/06 05:22:59;;;;;;;11.40;7.70;;;;;;;10.57;100.00;101765.81;2097424;28;20052;-74
2023/01/06 05:24:21;;;;;;;10.73;7.78;;;;;;;10.55;100.00;101770.16;2093528;28;20060;-74
2023/01/06 05:25:43;;;;;;;12.90;7.82;;;;;;;10.54;100.00;101773.66;2096922;28;20059;-74
2023/01/06 05:27:06;;;;;;;10.70;7.57;;;;;;;10.54;100.00;101763.09;2094803;28;20040;-74
2023/01/06 05:28:29;;;;;;;11.68;8.57;;;;;;;10.55;100.00;101775.44;2092930;28;20049;-74
2023/01/06 05:29:51;;;;;;;12.57;7.82;;;;;;;10.53;100.00;101766.56;2094099;28;20048;-74
2023/01/06 05:31:14;;;;;;;12.63;7.22;;;;;;;10.54;100.00;101768.38;2102600;28;20051;-74
2023/01/06 05:32:36;;;;;;;12.55;8.13;;;;;;;10.56;100.00;101777.25;2096815;28;20048;-74
2023/01/06 05:33:59;;;;;;;10.00;7.28;;;;;;;10.58;100.00;101779.06;2103123;28;20118;-74
2023/01/06 05:35:20;;;;;;;11.07;7.35;;;;;;;10.60;100.00;101782.66;2096545;28;20064;-74
2023/01/06 05:36:44;;;;;;;12.43;7.45;;;;;;;10.63;100.00;101781.88;2093474;28;20052;-74
2023/01/06 05:38:06;;;;;;;14.18;7.75;;;;;;;10.66;100.00;101784.59;2078407;28;20143;-74
2023/01/06 05:39:29;;;;;;;12.88;8.00;;;;;;;10.67;100.00;101782.00;2096591;28;20051;-74
2023/01/06 05:40:51;;;;;;;14.48;10.30;;;;;;;10.71;100.00;101777.69;2087482;28;20107;-74
2023/01/06 05:42:16;;;;;;;13.68;10.18;;;;;;;10.74;100.00;101778.72;2101764;28;20121;-74
2023/01/06 05:43:37;;;;;;;14.82;10.38;;;;;;;10.77;100.00;101786.72;2094034;28;20045;-74
2023/01/06 05:45:00;;;;;;;16.50;10.10;;;;;;;10.79;100.00;101781.47;2094463;28;20159;-74
2023/01/06 05:46:22;;;;;;;16.27;12.15;;;;;;;10.79;100.00;101779.75;2086389;28;20390;-74
2023/01/06 05:47:43;;;;;;;32.58;20.33;;;;;;;10.80;100.00;101783.28;2086272;28;20049;-75
2023/01/06 05:49:06;;;;;;;23.63;18.02;;;;;;;10.79;100.00;101785.03;2091904;28;20048;-74
2023/01/06 05:50:28;;;;;;;22.67;17.80;;;;;;;10.78;100.00;101782.31;2087660;28;20417;-74
2023/01/06 05:51:52;;;;;;;15.60;12.05;;;;;;;10.76;100.00;101787.56;2085453;28;20049;-74
2023/01/06 05:53:14;;;;;;;17.10;12.25;;;;;;;10.75;100.00;101783.16;2084110;28;20061;-74
2023/01/06 05:54:37;;;;;;;11.95;8.50;;;;;;;10.74;100.00;101783.09;2083439;28;20417;-74
2023/01/06 05:56:01;;;;;;;17.40;11.32;;;;;;;10.74;100.00;101788.38;2083165;28;20106;-74
2023/01/06 05:57:23;;;;;;;13.38;10.13;;;;;;;10.73;100.00;101787.47;2091665;28;20044;-74
2023/01/06 05:58:46;;;;;;;15.45;9.52;;;;;;;10.73;100.00;101789.22;2096930;28;20052;-74
2023/01/06 06:00:10;;;;;;;13.25;8.55;;;;;;;10.75;100.00;101792.81;2102056;28;20036;-74
2023/01/06 06:01:35;;;;;;;13.88;9.10;;;;;;;10.76;100.00;101789.34;2096095;28;20704;-74
2023/01/06 06:02:57;;;;;;;13.30;8.88;;;;;;;10.78;100.00;101796.44;2102549;28;20032;-75
2023/01/06 06:04:19;;;;;;;14.57;9.20;;;;;;;10.81;100.00;101800.03;2096907;28;20044;-74
2023/01/06 06:05:40;;;;;;;16.08;11.18;;;;;;;10.82;100.00;101797.44;2101793;28;20105;-74
2023/01/06 06:07:04;;;;;;;15.43;11.20;;;;;;;10.78;100.00;101798.16;2088235;28;20563;-74
2023/01/06 06:08:28;;;;;;;19.63;14.63;;;;;;;10.74;100.00;101796.28;2091916;28;20045;-74
2023/01/06 06:09:51;;;;;;;23.02;15.32;;;;;;;10.73;100.00;101791.84;2094902;28;20044;-74
2023/01/06 06:11:16;;;;;;;14.30;11.18;;;;;;;10.74;100.00;101794.56;2102121;28;20040;-74
2023/01/06 06:12:39;;;;;;;15.68;10.30;;;;;;;10.76;100.00;101789.34;2103900;28;20060;-74
2023/01/06 06:14:01;;;;;;;13.70;10.05;;;;;;;10.78;100.00;101790.25;2087532;28;20036;-73
2023/01/06 06:15:23;;;;;;;12.45;9.75;;;;;;;10.81;100.00;101795.66;2089853;28;20044;-74
2023/01/06 06:16:46;;;;;;;13.73;9.60;;;;;;;10.84;100.00;101795.72;2094192;28;20048;-74
2023/01/06 06:18:08;;;;;;;15.25;9.38;;;;;;;10.87;100.00;101793.19;2099324;28;20106;-74
2023/01/06 06:19:31;;;;;;;17.38;10.07;;;;;;;10.90;100.00;101797.66;2094994;28;20090;-74
2023/01/06 06:20:53;;;;;;;15.30;10.25;;;;;;;10.93;100.00;101797.75;2092935;28;20479;-73
2023/01/06 06:22:17;;;;;;;17.00;9.65;;;;;;;11.00;100.00;101798.00;2096898;28;20106;-74
2023/01/06 06:23:39;;;;;;;14.50;9.20;;;;;;;11.15;100.00;101803.75;2094063;28;20565;-73
2023/01/06 06:25:01;;;;;;;;;;;;;;;11.26;100.00;101805.81;2095841;28;20141;-74
2023/01/06 06:26:24;;;;;;;12.93;9.20;;;;;;;11.45;100.00;101800.19;2094105;28;19953;-74
2023/01/06 06:27:46;;;;;;;14.75;9.55;;;;;;;11.65;100.00;101806.06;2096845;28;20044;-74
2023/01/06 06:29:09;;;;;;;15.02;9.23;;;;;;;11.83;100.00;101807.47;2084489;28;20186;-74